Weather at Flatval Airport

Public forecast

Using degrees Celsius for public forecast. Weather courtesy of forecast.io.

Closest aviation weather report (METAR) to Flatval Airport

Closest report is Ørland Airport, 22.4 nm (41.6 km) E. Retrieved 2020/09/27 02:20 UTC (36 minutes ago):

ENOL 270220Z 07004KT CAVOK 08/04 Q1019

Closest aviation forecast (TAF) to Flatval Airport

Closest forecast is Ørland Airport, 22.4 nm (41.6 km) E. Retrieved 2020-09-27 00:57 UTC (2 hours ago):

TAF ENOL 262300Z 2700/2724 05007KT 9999 FEW040 SCT070 BECMG 2705/2708 11012KT TEMPO 2708/2724 12015G25KT